Time;durP1;ratioP1;P1;durP2;ratioP2;P2;SDS_P1;SDS_P2;PMS_P1;PMS_P2;Temp;Humidity;BMP_temperature;BMP_pressure;BME280_temperature;BME280_humidity;BME280_pressure;Samples;Min_cycle;Max_cycle;Signal;HPM_P1;HPM_P2
2023/11/15 00:00:51;;;;;;;1.20;0.35;;;;;;;;;;5046759;28;20075;-66
2023/11/15 00:03:17;;;;;;;3.17;0.60;;;;;;;;;;5051347;28;20021;-66
2023/11/15 00:05:43;;;;;;;2.88;0.57;;;;;;;;;;5053351;28;20033;-66
2023/11/15 00:08:09;;;;;;;2.50;0.65;;;;;;;;;;5053120;28;20039;-66
2023/11/15 00:10:35;;;;;;;0.68;0.65;;;;;;;;;;5051953;28;20029;-65
2023/11/15 00:13:01;;;;;;;5.25;0.38;;;;;;;;;;5052598;28;20029;-66
2023/11/15 00:15:27;;;;;;;5.18;0.43;;;;;;;;;;5052708;28;20501;-66
2023/11/15 00:17:53;;;;;;;2.40;0.45;;;;;;;;;;5057180;28;20020;-66
2023/11/15 00:20:20;;;;;;;5.57;0.50;;;;;;;;;;5050886;28;20070;-66
2023/11/15 00:22:46;;;;;;;2.75;0.40;;;;;;;;;;5052803;28;20458;-66
2023/11/15 00:25:12;;;;;;;2.88;0.50;;;;;;;;;;5052622;28;20484;-65
2023/11/15 00:27:38;;;;;;;5.72;0.80;;;;;;;;;;5054453;28;20025;-66
2023/11/15 00:30:05;;;;;;;2.60;0.50;;;;;;;;;;5052834;28;20454;-66
2023/11/15 00:32:31;;;;;;;6.13;0.50;;;;;;;;;;5054224;28;20048;-66
2023/11/15 00:34:57;;;;;;;5.25;0.73;;;;;;;;;;5053033;28;20036;-65
2023/11/15 00:37:23;;;;;;;3.75;0.32;;;;;;;;;;5051270;28;20021;-66
2023/11/15 00:39:49;;;;;;;1.05;0.50;;;;;;;;;;5051430;28;20021;-65
2023/11/15 00:42:15;;;;;;;3.05;0.60;;;;;;;;;;5054102;28;20025;-65
2023/11/15 00:44:41;;;;;;;2.50;0.50;;;;;;;;;;5052742;28;20032;-66
2023/11/15 00:47:07;;;;;;;1.92;0.77;;;;;;;;;;5051326;28;20377;-66
2023/11/15 00:49:34;;;;;;;2.72;0.43;;;;;;;;;;5048773;28;20025;-66
2023/11/15 00:51:59;;;;;;;2.80;0.60;;;;;;;;;;5051386;28;20407;-67
2023/11/15 00:54:25;;;;;;;6.95;1.13;;;;;;;;;;5050758;28;20021;-66
2023/11/15 00:56:55;;;;;;;2.88;0.70;;;;;;;;;;5052568;28;20167;-66
2023/11/15 00:59:22;;;;;;;3.85;0.65;;;;;;;;;;5051880;28;20501;-66
2023/11/15 01:01:57;;;;;;;2.08;0.77;;;;;;;;;;5052604;28;20064;-65
2023/11/15 01:04:24;;;;;;;2.70;0.55;;;;;;;;;;5052335;28;20191;-66
2023/11/15 01:06:50;;;;;;;5.55;0.65;;;;;;;;;;5052015;28;20025;-66
2023/11/15 01:09:16;;;;;;;2.03;0.63;;;;;;;;;;5052058;28;20501;-66
2023/11/15 01:11:42;;;;;;;2.70;0.75;;;;;;;;;;5051530;28;20025;-66
2023/11/15 01:14:08;;;;;;;3.42;0.68;;;;;;;;;;5051976;28;20055;-66
2023/11/15 01:16:34;;;;;;;2.13;0.60;;;;;;;;;;5052358;28;20132;-65
2023/11/15 01:19:00;;;;;;;1.60;0.60;;;;;;;;;;5052713;28;20151;-66
2023/11/15 01:21:27;;;;;;;6.13;0.82;;;;;;;;;;5051155;28;20490;-65
2023/11/15 01:23:53;;;;;;;4.13;0.47;;;;;;;;;;5054841;28;20023;-65
2023/11/15 01:26:20;;;;;;;1.40;0.40;;;;;;;;;;5050433;28;20025;-66
2023/11/15 01:28:46;;;;;;;1.20;0.47;;;;;;;;;;5052237;28;20059;-66
2023/11/15 01:31:12;;;;;;;4.10;0.60;;;;;;;;;;5051240;28;20032;-65
2023/11/15 01:33:39;;;;;;;2.78;0.50;;;;;;;;;;5052841;28;20382;-65
2023/11/15 01:36:05;;;;;;;3.05;0.70;;;;;;;;;;5050583;28;20033;-66
2023/11/15 01:38:31;;;;;;;0.85;0.40;;;;;;;;;;5052505;28;20382;-65
2023/11/15 01:40:58;;;;;;;4.45;0.80;;;;;;;;;;5046032;28;20033;-65
2023/11/15 01:43:24;;;;;;;4.90;1.08;;;;;;;;;;5051709;28;20051;-65
2023/11/15 01:45:50;;;;;;;1.65;0.50;;;;;;;;;;5050833;28;20053;-65
2023/11/15 01:48:17;;;;;;;2.92;0.77;;;;;;;;;;5051205;28;20075;-65
2023/11/15 01:50:47;;;;;;;5.00;0.80;;;;;;;;;;5056635;28;20052;-66
2023/11/15 01:53:13;;;;;;;4.53;0.70;;;;;;;;;;5049450;28;20051;-65
2023/11/15 01:55:40;;;;;;;1.65;0.52;;;;;;;;;;5045525;28;20479;-65
2023/11/15 01:58:07;;;;;;;9.23;0.70;;;;;;;;;;5047539;28;20037;-66
2023/11/15 02:00:34;;;;;;;4.13;0.63;;;;;;;;;;5052115;28;20017;-65
2023/11/15 02:03:01;;;;;;;2.00;0.60;;;;;;;;;;5051463;28;20025;-65
2023/11/15 02:05:27;;;;;;;3.22;0.85;;;;;;;;;;5048214;28;20195;-65
2023/11/15 02:07:54;;;;;;;4.50;0.70;;;;;;;;;;5049692;28;20037;-66
2023/11/15 02:10:20;;;;;;;3.10;0.70;;;;;;;;;;5051255;28;20051;-65
2023/11/15 02:12:46;;;;;;;4.85;0.80;;;;;;;;;;5051109;28;20017;-65
2023/11/15 02:15:16;;;;;;;2.15;0.50;;;;;;;;;;5049149;28;20025;-65
2023/11/15 02:17:48;;;;;;;3.35;0.73;;;;;;;;;;5051193;28;20063;-65
2023/11/15 02:20:17;;;;;;;6.82;1.02;;;;;;;;;;5051022;28;20036;-65
2023/11/15 02:22:50;;;;;;;1.92;0.50;;;;;;;;;;5049205;28;20028;-65
2023/11/15 02:25:16;;;;;;;3.53;0.70;;;;;;;;;;5045379;28;20099;-66
2023/11/15 02:27:43;;;;;;;4.07;0.55;;;;;;;;;;5050831;28;20458;-65
2023/11/15 02:30:09;;;;;;;3.13;0.63;;;;;;;;;;5052491;28;20096;-66
2023/11/15 02:32:39;;;;;;;3.33;0.80;;;;;;;;;;5044423;28;20086;-66
2023/11/15 02:35:07;;;;;;;4.35;0.82;;;;;;;;;;5050469;28;20521;-66
2023/11/15 02:37:34;;;;;;;2.38;0.63;;;;;;;;;;5050944;28;20044;-65
2023/11/15 02:40:04;;;;;;;4.30;0.70;;;;;;;;;;5051656;28;20108;-65
2023/11/15 02:42:30;;;;;;;3.08;1.10;;;;;;;;;;5049568;28;20033;-65
2023/11/15 02:44:56;;;;;;;2.85;0.60;;;;;;;;;;5051184;28;20485;-65
2023/11/15 02:47:25;;;;;;;7.40;0.77;;;;;;;;;;5038552;28;20025;-66
2023/11/15 02:49:51;;;;;;;5.05;0.75;;;;;;;;;;5050006;28;20037;-65
2023/11/15 02:52:17;;;;;;;3.72;0.55;;;;;;;;;;5050038;28;20040;-65
2023/11/15 02:54:43;;;;;;;2.50;0.68;;;;;;;;;;5049362;28;20449;-65
2023/11/15 02:57:11;;;;;;;4.60;0.75;;;;;;;;;;5053776;28;20064;-66
2023/11/15 02:59:37;;;;;;;3.80;0.73;;;;;;;;;;5040005;28;20047;-65
2023/11/15 03:02:03;;;;;;;5.65;0.80;;;;;;;;;;5050130;28;20466;-66
2023/11/15 03:04:29;;;;;;;1.98;0.60;;;;;;;;;;5049720;28;20079;-65
2023/11/15 03:06:55;;;;;;;5.22;0.75;;;;;;;;;;5050499;28;20032;-66
2023/11/15 03:09:21;;;;;;;3.22;0.70;;;;;;;;;;5049955;28;20800;-66
2023/11/15 03:11:47;;;;;;;4.05;0.80;;;;;;;;;;5050708;28;20048;-66
2023/11/15 03:14:13;;;;;;;3.80;0.80;;;;;;;;;;5048252;28;20527;-66
2023/11/15 03:16:40;;;;;;;6.60;1.20;;;;;;;;;;5049640;28;20125;-66
2023/11/15 03:19:06;;;;;;;5.28;0.77;;;;;;;;;;5049128;28;20025;-65
2023/11/15 03:21:33;;;;;;;4.38;0.80;;;;;;;;;;5050739;28;20021;-66
2023/11/15 03:23:59;;;;;;;4.65;0.60;;;;;;;;;;5049951;28;20471;-66
2023/11/15 03:26:25;;;;;;;2.40;0.65;;;;;;;;;;5049375;28;20040;-66
2023/11/15 03:28:51;;;;;;;3.75;0.57;;;;;;;;;;5050675;28;20521;-66
2023/11/15 03:31:17;;;;;;;3.13;0.80;;;;;;;;;;5049659;28;20123;-65
2023/11/15 03:33:43;;;;;;;6.68;0.63;;;;;;;;;;5049867;28;20053;-66
2023/11/15 03:36:09;;;;;;;6.80;0.90;;;;;;;;;;5048391;28;20033;-65
2023/11/15 03:38:36;;;;;;;3.05;0.57;;;;;;;;;;5053632;28;20024;-66
2023/11/15 03:41:02;;;;;;;5.18;0.70;;;;;;;;;;5053846;28;20017;-66
2023/11/15 03:43:28;;;;;;;3.92;0.85;;;;;;;;;;5052965;28;20033;-65
2023/11/15 03:45:54;;;;;;;2.83;0.82;;;;;;;;;;5054169;28;20104;-65
2023/11/15 03:48:20;;;;;;;6.20;0.90;;;;;;;;;;5054069;28;20029;-65
2023/11/15 03:50:46;;;;;;;3.58;0.65;;;;;;;;;;5054614;28;20032;-65
2023/11/15 03:53:12;;;;;;;5.53;0.70;;;;;;;;;;5052009;28;20029;-65
2023/11/15 03:55:39;;;;;;;3.05;0.70;;;;;;;;;;5054296;28;20027;-65
2023/11/15 03:58:05;;;;;;;1.60;0.40;;;;;;;;;;5053313;28;20025;-65
2023/11/15 04:00:31;;;;;;;3.05;0.57;;;;;;;;;;5054217;28;20024;-66
2023/11/15 04:02:57;;;;;;;7.68;0.90;;;;;;;;;;5052718;28;20036;-67
2023/11/15 04:05:23;;;;;;;4.95;0.80;;;;;;;;;;5058010;28;20204;-66
2023/11/15 04:07:49;;;;;;;3.95;0.70;;;;;;;;;;5052645;28;20036;-65
2023/11/15 04:10:15;;;;;;;2.83;1.13;;;;;;;;;;5053017;28;20474;-66
2023/11/15 04:12:42;;;;;;;5.15;1.23;;;;;;;;;;5053589;28;20103;-65
2023/11/15 04:15:09;;;;;;;3.85;1.33;;;;;;;;;;5044385;28;20033;-67
2023/11/15 04:17:35;;;;;;;4.47;0.70;;;;;;;;;;5053242;28;20421;-66
2023/11/15 04:20:01;;;;;;;5.38;1.08;;;;;;;;;;5053577;28;20124;-66
2023/11/15 04:22:27;;;;;;;5.18;0.75;;;;;;;;;;5056298;28;20029;-66
2023/11/15 04:24:53;;;;;;;2.92;0.65;;;;;;;;;;5053618;28;20078;-66
2023/11/15 04:27:19;;;;;;;3.00;0.52;;;;;;;;;;5051418;28;20036;-66
2023/11/15 04:29:45;;;;;;;3.58;0.77;;;;;;;;;;5035453;28;20025;-66
2023/11/15 04:32:11;;;;;;;4.70;1.17;;;;;;;;;;5050401;28;20377;-65
2023/11/15 04:34:37;;;;;;;3.45;0.55;;;;;;;;;;5052974;28;20029;-65
2023/11/15 04:37:03;;;;;;;2.85;0.52;;;;;;;;;;5052133;28;20038;-66
2023/11/15 04:39:30;;;;;;;4.07;0.70;;;;;;;;;;5035574;28;20124;-65
2023/11/15 04:41:56;;;;;;;3.22;0.95;;;;;;;;;;5050682;28;20095;-65
2023/11/15 04:44:23;;;;;;;3.88;0.90;;;;;;;;;;5051819;28;20092;-66
2023/11/15 04:46:49;;;;;;;2.83;0.90;;;;;;;;;;5052346;28;20374;-66
2023/11/15 04:49:15;;;;;;;3.85;1.20;;;;;;;;;;5051537;28;20029;-67
2023/11/15 04:51:41;;;;;;;4.85;1.02;;;;;;;;;;5050669;28;20538;-65
2023/11/15 04:54:07;;;;;;;6.90;1.52;;;;;;;;;;5051309;28;20021;-65
2023/11/15 04:56:34;;;;;;;4.50;1.42;;;;;;;;;;5053389;28;20115;-65
2023/11/15 04:59:00;;;;;;;4.53;0.88;;;;;;;;;;5052565;28;20020;-65
2023/11/15 05:01:26;;;;;;;2.92;1.10;;;;;;;;;;5050015;28;20494;-65
2023/11/15 05:03:52;;;;;;;5.45;1.00;;;;;;;;;;5052873;28;20096;-65
2023/11/15 05:06:18;;;;;;;2.90;0.73;;;;;;;;;;5051719;28;20087;-64
2023/11/15 05:08:44;;;;;;;5.32;0.95;;;;;;;;;;5052571;28;20367;-66
2023/11/15 05:11:10;;;;;;;4.75;1.02;;;;;;;;;;5050963;28;20725;-66
2023/11/15 05:13:36;;;;;;;5.88;1.00;;;;;;;;;;5057083;28;20100;-66
2023/11/15 05:16:03;;;;;;;5.03;0.68;;;;;;;;;;5051135;28;20478;-65
2023/11/15 05:18:30;;;;;;;4.53;0.80;;;;;;;;;;5050322;28;20105;-65
2023/11/15 05:20:56;;;;;;;6.05;1.05;;;;;;;;;;5051595;28;20044;-65
2023/11/15 05:23:22;;;;;;;4.32;0.90;;;;;;;;;;5050587;28;20283;-66
2023/11/15 05:25:48;;;;;;;2.40;0.73;;;;;;;;;;5050528;28;20081;-66
2023/11/15 05:28:14;;;;;;;3.42;0.73;;;;;;;;;;5051118;28;20096;-66
2023/11/15 05:30:41;;;;;;;3.53;0.70;;;;;;;;;;5052538;28;20114;-65
2023/11/15 05:33:08;;;;;;;2.53;0.70;;;;;;;;;;5050850;28;20025;-66
2023/11/15 05:35:34;;;;;;;6.07;1.00;;;;;;;;;;5050604;28;20120;-65
2023/11/15 05:38:00;;;;;;;5.32;0.93;;;;;;;;;;5047763;28;20016;-66
2023/11/15 05:40:26;;;;;;;3.40;0.90;;;;;;;;;;5051228;28;20032;-66
2023/11/15 05:42:52;;;;;;;3.63;0.90;;;;;;;;;;5051120;28;20067;-65
2023/11/15 05:45:18;;;;;;;6.35;1.20;;;;;;;;;;5049960;28;20025;-65
2023/11/15 05:47:44;;;;;;;7.25;1.02;;;;;;;;;;5054658;28;20532;-66
2023/11/15 05:50:10;;;;;;;4.43;0.80;;;;;;;;;;5050764;28;20021;-66
2023/11/15 05:52:39;;;;;;;2.72;1.00;;;;;;;;;;5051045;28;20021;-65
2023/11/15 05:55:10;;;;;;;4.43;0.75;;;;;;;;;;5050697;28;20017;-64
2023/11/15 05:57:37;;;;;;;2.50;0.80;;;;;;;;;;5049836;28;20044;-66
2023/11/15 06:00:10;;;;;;;5.43;1.25;;;;;;;;;;5051012;28;20029;-65
2023/11/15 06:02:36;;;;;;;9.00;1.25;;;;;;;;;;5045388;28;20017;-66
2023/11/15 06:05:02;;;;;;;5.03;0.88;;;;;;;;;;5048499;28;20356;-65
2023/11/15 06:07:29;;;;;;;4.85;1.20;;;;;;;;;;5050532;28;20044;-65
2023/11/15 06:09:55;;;;;;;6.82;1.27;;;;;;;;;;5050006;28;20045;-65
2023/11/15 06:12:22;;;;;;;8.25;1.30;;;;;;;;;;5046068;28;20582;-66
2023/11/15 06:14:48;;;;;;;8.93;1.30;;;;;;;;;;5040605;28;20037;-66
2023/11/15 06:17:14;;;;;;;5.95;1.23;;;;;;;;;;5037894;28;20351;-66
2023/11/15 06:19:41;;;;;;;5.25;1.02;;;;;;;;;;5033898;28;20079;-70
2023/11/15 06:22:07;;;;;;;2.05;0.60;;;;;;;;;;5054759;28;20108;-65
2023/11/15 06:24:34;;;;;;;3.45;0.80;;;;;;;;;;5051726;28;20115;-65
2023/11/15 06:27:00;;;;;;;5.10;0.88;;;;;;;;;;5062267;28;20119;-69
2023/11/15 06:29:26;;;;;;;3.47;0.63;;;;;;;;;;5050713;28;20881;-64
2023/11/15 06:31:54;;;;;;;5.75;0.75;;;;;;;;;;5035804;28;20029;-65
2023/11/15 06:34:19;;;;;;;2.35;0.50;;;;;;;;;;5050294;28;20043;-65
2023/11/15 06:36:46;;;;;;;3.13;0.68;;;;;;;;;;5049769;28;20033;-65
2023/11/15 06:39:12;;;;;;;1.48;0.50;;;;;;;;;;5051206;28;20478;-67
2023/11/15 06:41:38;;;;;;;3.22;0.98;;;;;;;;;;5050992;28;20037;-65
2023/11/15 06:44:07;;;;;;;8.23;0.75;;;;;;;;;;5049031;28;20021;-66
2023/11/15 06:46:38;;;;;;;3.83;1.00;;;;;;;;;;5040999;28;20079;-65
2023/11/15 06:49:04;;;;;;;3.75;0.93;;;;;;;;;;5052789;28;20490;-66
2023/11/15 06:51:30;;;;;;;2.08;0.60;;;;;;;;;;5051679;28;20033;-65
2023/11/15 06:53:56;;;;;;;4.43;0.80;;;;;;;;;;5041995;28;20022;-65
2023/11/15 06:56:22;;;;;;;4.15;1.00;;;;;;;;;;5049707;28;20025;-67
2023/11/15 06:58:48;;;;;;;2.55;0.70;;;;;;;;;;5056131;28;20075;-67
2023/11/15 07:01:14;;;;;;;2.10;1.00;;;;;;;;;;5049457;28;20025;-65
2023/11/15 07:03:46;;;;;;;7.68;1.48;;;;;;;;;;5051015;28;20079;-65
2023/11/15 07:06:13;;;;;;;8.07;1.60;;;;;;;;;;5048712;28;20778;-65
2023/11/15 07:08:39;;;;;;;4.78;1.38;;;;;;;;;;5040143;28;20479;-65
2023/11/15 07:11:08;;;;;;;6.40;1.35;;;;;;;;;;5049517;28;20060;-65
2023/11/15 07:13:34;;;;;;;5.43;1.20;;;;;;;;;;5053360;28;20024;-63
2023/11/15 07:16:02;;;;;;;7.38;1.08;;;;;;;;;;5048845;28;20144;-63
2023/11/15 07:18:29;;;;;;;6.93;1.30;;;;;;;;;;5049885;28;20115;-63
2023/11/15 07:20:55;;;;;;;7.82;1.58;;;;;;;;;;5053417;28;20055;-64
2023/11/15 07:23:21;;;;;;;8.35;1.65;;;;;;;;;;5039110;28;20047;-65
2023/11/15 07:25:48;;;;;;;9.18;1.63;;;;;;;;;;5049173;28;20028;-65
2023/11/15 07:28:14;;;;;;;6.57;1.10;;;;;;;;;;5040973;28;20123;-65
2023/11/15 07:30:43;;;;;;;8.93;1.98;;;;;;;;;;5049411;28;20040;-65
2023/11/15 07:33:09;;;;;;;8.07;1.25;;;;;;;;;;5052390;28;20021;-65
2023/11/15 07:35:36;;;;;;;11.50;1.40;;;;;;;;;;5055623;28;20033;-65
2023/11/15 07:38:02;;;;;;;4.95;1.50;;;;;;;;;;5057876;28;20478;-65
2023/11/15 07:40:28;;;;;;;5.32;1.42;;;;;;;;;;5064205;28;20029;-65
2023/11/15 07:42:54;;;;;;;6.85;1.50;;;;;;;;;;5049985;28;20021;-65
2023/11/15 07:45:20;;;;;;;7.20;1.30;;;;;;;;;;5054725;28;20078;-65
2023/11/15 07:47:46;;;;;;;11.25;1.45;;;;;;;;;;5053866;28;20554;-65
2023/11/15 07:50:15;;;;;;;8.52;1.20;;;;;;;;;;5055413;28;20103;-65
2023/11/15 07:52:41;;;;;;;4.03;1.27;;;;;;;;;;5047822;28;20028;-65
2023/11/15 07:55:07;;;;;;;5.47;1.15;;;;;;;;;;5048673;28;20021;-65
2023/11/15 07:57:33;;;;;;;3.83;0.95;;;;;;;;;;5041990;28;20108;-66
2023/11/15 07:59:59;;;;;;;7.13;2.10;;;;;;;;;;5047533;28;20139;-66
2023/11/15 08:02:26;;;;;;;10.38;1.58;;;;;;;;;;5045558;28;20017;-65
2023/11/15 08:04:52;;;;;;;9.52;1.52;;;;;;;;;;5031844;28;20076;-66
2023/11/15 08:07:18;;;;;;;5.75;1.50;;;;;;;;;;5048974;28;20036;-66
2023/11/15 08:09:46;;;;;;;10.23;2.10;;;;;;;;;;5050079;28;20017;-66
2023/11/15 08:12:12;;;;;;;7.90;1.60;;;;;;;;;;5047841;28;20039;-65
2023/11/15 08:14:38;;;;;;;7.15;1.60;;;;;;;;;;5049932;28;20502;-66
2023/11/15 08:17:04;;;;;;;7.13;1.30;;;;;;;;;;5049125;28;20053;-65
2023/11/15 08:19:30;;;;;;;8.85;1.40;;;;;;;;;;5057847;28;20020;-65
2023/11/15 08:21:56;;;;;;;5.78;1.40;;;;;;;;;;5050705;28;21137;-66
2023/11/15 08:24:22;;;;;;;6.65;1.63;;;;;;;;;;5047350;28;20140;-66
2023/11/15 08:26:51;;;;;;;5.85;1.35;;;;;;;;;;5053532;28;20454;-65
2023/11/15 08:29:17;;;;;;;10.68;1.42;;;;;;;;;;5053039;28;20053;-66
2023/11/15 08:31:43;;;;;;;6.90;1.38;;;;;;;;;;5049917;28;20104;-65
2023/11/15 08:34:10;;;;;;;6.40;1.67;;;;;;;;;;5051796;28;20440;-65
2023/11/15 08:36:37;;;;;;;8.13;1.65;;;;;;;;;;5058105;28;20087;-66
2023/11/15 08:39:03;;;;;;;4.85;1.30;;;;;;;;;;5053347;28;20024;-68
2023/11/15 08:41:29;;;;;;;7.50;1.65;;;;;;;;;;5051777;28;20099;-65
2023/11/15 08:43:55;;;;;;;10.77;2.10;;;;;;;;;;5053719;28;20152;-66
2023/11/15 08:46:26;;;;;;;11.35;2.03;;;;;;;;;;5052410;28;20108;-65
2023/11/15 08:48:52;;;;;;;7.90;1.50;;;;;;;;;;5052974;28;20047;-65
2023/11/15 08:51:19;;;;;;;11.35;1.73;;;;;;;;;;5041915;28;20033;-66
2023/11/15 08:53:47;;;;;;;8.18;2.17;;;;;;;;;;5069368;28;20028;-65
2023/11/15 08:56:14;;;;;;;9.60;1.52;;;;;;;;;;5057495;28;20110;-66
2023/11/15 08:58:40;;;;;;;5.65;1.60;;;;;;;;;;5055045;28;20040;-65
2023/11/15 09:01:09;;;;;;;9.13;1.80;;;;;;;;;;5051819;28;20027;-66
2023/11/15 09:03:35;;;;;;;10.15;1.40;;;;;;;;;;5052967;28;20482;-65
2023/11/15 09:06:01;;;;;;;7.65;1.70;;;;;;;;;;5052382;28;20033;-65
2023/11/15 09:08:27;;;;;;;7.30;1.83;;;;;;;;;;5058450;28;20021;-66
2023/11/15 09:10:55;;;;;;;9.50;1.58;;;;;;;;;;5057134;28;20025;-66
2023/11/15 09:13:22;;;;;;;6.75;1.77;;;;;;;;;;5052287;28;20470;-66
2023/11/15 09:15:50;;;;;;;8.25;1.40;;;;;;;;;;5052145;28;20643;-65
2023/11/15 09:18:19;;;;;;;6.93;1.38;;;;;;;;;;5052288;28;20029;-66
2023/11/15 09:20:47;;;;;;;9.97;1.53;;;;;;;;;;5052573;28;20437;-66
2023/11/15 09:23:13;;;;;;;8.43;1.40;;;;;;;;;;5051698;28;20025;-66
2023/11/15 09:25:40;;;;;;;6.78;1.38;;;;;;;;;;5052482;28;20025;-66
2023/11/15 09:28:06;;;;;;;6.28;1.23;;;;;;;;;;5064756;28;20048;-66
2023/11/15 09:30:32;;;;;;;3.97;1.05;;;;;;;;;;5052615;28;20032;-65
2023/11/15 09:32:59;;;;;;;6.00;1.17;;;;;;;;;;5051094;28;20029;-65
2023/11/15 09:35:29;;;;;;;8.93;2.10;;;;;;;;;;5051730;28;20517;-65
2023/11/15 09:37:58;;;;;;;4.67;1.47;;;;;;;;;;5052112;28;20032;-65
2023/11/15 09:40:24;;;;;;;4.35;1.08;;;;;;;;;;5051781;28;20115;-65
2023/11/15 09:42:54;;;;;;;3.75;1.00;;;;;;;;;;5051967;28;20028;-65
2023/11/15 09:45:23;;;;;;;4.60;1.15;;;;;;;;;;5056761;28;20013;-67
2023/11/15 09:47:51;;;;;;;3.08;0.70;;;;;;;;;;5051590;28;20487;-65
2023/11/15 09:50:21;;;;;;;5.03;0.80;;;;;;;;;;5052585;28;20029;-66
2023/11/15 09:52:49;;;;;;;3.17;0.75;;;;;;;;;;5052563;28;20031;-66
2023/11/15 09:55:15;;;;;;;6.18;1.02;;;;;;;;;;5051396;28;20512;-67
2023/11/15 09:57:41;;;;;;;2.78;0.98;;;;;;;;;;5051242;28;20075;-66
2023/11/15 10:00:09;;;;;;;3.28;0.95;;;;;;;;;;5051828;28;20090;-66
2023/11/15 10:02:37;;;;;;;2.30;0.65;;;;;;;;;;5052028;28;20024;-66
2023/11/15 10:05:18;;;;;;;3.33;0.88;;;;;;;;;;5051996;28;20474;-66
2023/11/15 10:07:44;;;;;;;4.60;0.85;;;;;;;;;;5051367;28;20033;-66
2023/11/15 10:10:24;;;;;;;3.10;0.85;;;;;;;;;;5050266;28;20017;-66
2023/11/15 10:12:53;;;;;;;2.58;0.80;;;;;;;;;;5051308;28;20090;-66
2023/11/15 10:15:39;;;;;;;3.22;1.58;;;;;;;;;;5050683;28;20055;-66
2023/11/15 10:18:11;;;;;;;2.60;0.90;;;;;;;;;;5051325;28;20473;-66
2023/11/15 10:20:37;;;;;;;5.20;0.70;;;;;;;;;;5050321;28;20036;-66
2023/11/15 10:23:03;;;;;;;2.70;0.70;;;;;;;;;;5051352;28;20017;-66
2023/11/15 10:25:31;;;;;;;3.30;0.80;;;;;;;;;;5055785;28;20107;-66
2023/11/15 10:28:01;;;;;;;2.05;0.70;;;;;;;;;;5055748;28;20102;-66
2023/11/15 10:30:27;;;;;;;5.95;1.05;;;;;;;;;;5048392;28;20013;-67
2023/11/15 10:33:10;;;;;;;3.28;1.02;;;;;;;;;;5053237;28;20467;-67
2023/11/15 10:35:36;;;;;;;1.90;0.85;;;;;;;;;;5056663;28;20021;-66
2023/11/15 10:38:02;;;;;;;5.32;1.08;;;;;;;;;;5050742;28;20032;-66
2023/11/15 10:40:30;;;;;;;2.05;0.75;;;;;;;;;;5050530;28;20171;-67
2023/11/15 10:42:58;;;;;;;5.35;0.82;;;;;;;;;;5049346;28;20025;-66
2023/11/15 10:45:27;;;;;;;1.80;0.70;;;;;;;;;;5053454;28;20025;-67
2023/11/15 10:47:58;;;;;;;2.83;0.75;;;;;;;;;;5050248;28;20039;-67
2023/11/15 10:50:28;;;;;;;3.95;0.80;;;;;;;;;;5063496;28;20032;-65
2023/11/15 10:52:54;;;;;;;2.27;0.67;;;;;;;;;;5051007;28;20029;-67
2023/11/15 10:55:22;;;;;;;4.28;0.60;;;;;;;;;;5050312;28;20032;-66
2023/11/15 10:57:50;;;;;;;2.38;0.80;;;;;;;;;;5049482;28;20094;-66
2023/11/15 11:00:21;;;;;;;4.55;0.57;;;;;;;;;;5048833;28;20112;-66
2023/11/15 11:02:51;;;;;;;2.90;0.70;;;;;;;;;;5050463;28;20025;-66
2023/11/15 11:05:36;;;;;;;4.32;0.80;;;;;;;;;;5050547;28;20024;-67
2023/11/15 11:08:34;;;;;;;4.03;0.70;;;;;;;;;;5050092;28;20037;-66
2023/11/15 11:11:09;;;;;;;2.80;0.70;;;;;;;;;;5002034;28;20462;-66
2023/11/15 11:13:36;;;;;;;2.67;0.85;;;;;;;;;;5049877;28;20033;-67
2023/11/15 11:16:20;;;;;;;5.47;1.00;;;;;;;;;;5049004;28;20191;-66
2023/11/15 11:19:06;;;;;;;2.53;0.57;;;;;;;;;;5051686;28;20043;-66
2023/11/15 11:21:50;;;;;;;3.90;0.80;;;;;;;;;;5049812;28;20021;-67
2023/11/15 11:24:18;;;;;;;3.40;0.73;;;;;;;;;;5049821;28;20025;-66
2023/11/15 11:26:45;;;;;;;5.15;0.80;;;;;;;;;;5057039;28;20056;-66
2023/11/15 11:29:12;;;;;;;2.50;0.70;;;;;;;;;;5050739;28;20063;-68
2023/11/15 11:31:38;;;;;;;3.60;0.60;;;;;;;;;;5049690;28;20021;-65
2023/11/15 11:34:08;;;;;;;4.18;0.70;;;;;;;;;;5050662;28;20021;-66
2023/11/15 11:36:53;;;;;;;4.65;0.77;;;;;;;;;;5049456;28;20373;-66
2023/11/15 11:39:23;;;;;;;5.20;0.95;;;;;;;;;;5049719;28;20482;-66
2023/11/15 11:41:50;;;;;;;3.08;0.90;;;;;;;;;;5047648;28;20029;-66
2023/11/15 11:44:18;;;;;;;2.08;0.68;;;;;;;;;;5049590;28;20025;-66
2023/11/15 11:46:44;;;;;;;3.05;1.30;;;;;;;;;;5049068;28;20017;-66
2023/11/15 11:49:10;;;;;;;6.15;1.60;;;;;;;;;;5045540;28;20033;-66
2023/11/15 11:51:36;;;;;;;5.93;1.40;;;;;;;;;;5049761;28;20025;-75
2023/11/15 11:54:03;;;;;;;4.60;0.70;;;;;;;;;;5050349;28;20033;-68
2023/11/15 11:56:29;;;;;;;2.25;1.00;;;;;;;;;;5045906;28;20032;-73
2023/11/15 11:59:07;;;;;;;5.30;1.02;;;;;;;;;;5055706;28;20017;-72
2023/11/15 12:01:46;;;;;;;3.90;1.10;;;;;;;;;;5060180;28;20536;-76
2023/11/15 12:04:12;;;;;;;4.75;1.00;;;;;;;;;;5053018;28;20029;-65
2023/11/15 12:06:40;;;;;;;1.58;0.50;;;;;;;;;;5051853;28;20108;-66
2023/11/15 12:09:10;;;;;;;2.95;1.17;;;;;;;;;;5054378;28;20013;-65
2023/11/15 12:11:36;;;;;;;3.13;0.70;;;;;;;;;;5050173;28;20478;-65
2023/11/15 12:14:04;;;;;;;3.35;0.60;;;;;;;;;;5050738;28;20434;-65
2023/11/15 12:16:30;;;;;;;3.90;0.75;;;;;;;;;;5050398;28;20041;-67
2023/11/15 12:19:09;;;;;;;4.32;0.80;;;;;;;;;;5055739;28;20017;-69
2023/11/15 12:21:42;;;;;;;4.55;0.85;;;;;;;;;;5053159;28;20033;-69
2023/11/15 12:24:10;;;;;;;2.58;0.70;;;;;;;;;;5053890;28;20502;-72
2023/11/15 12:26:44;;;;;;;2.25;0.60;;;;;;;;;;5057480;28;20025;-69
2023/11/15 12:29:23;;;;;;;4.40;0.63;;;;;;;;;;5053367;28;20108;-69
2023/11/15 12:31:50;;;;;;;4.43;0.70;;;;;;;;;;5052977;28;20032;-71
2023/11/15 12:34:17;;;;;;;4.40;0.88;;;;;;;;;;5064833;28;20457;-73
2023/11/15 12:36:44;;;;;;;3.33;1.30;;;;;;;;;;5065086;28;20037;-74
2023/11/15 12:39:13;;;;;;;3.83;0.68;;;;;;;;;;5053064;28;20017;-69
2023/11/15 12:41:48;;;;;;;3.95;1.10;;;;;;;;;;5055385;28;20021;-69
2023/11/15 12:44:14;;;;;;;5.20;1.25;;;;;;;;;;5045965;28;20032;-69
2023/11/15 12:46:42;;;;;;;2.88;0.50;;;;;;;;;;5052976;28;20033;-69
2023/11/15 12:49:14;;;;;;;3.72;0.80;;;;;;;;;;5053262;28;20025;-68
2023/11/15 12:51:47;;;;;;;2.35;0.60;;;;;;;;;;5057055;28;20032;-67
2023/11/15 12:54:13;;;;;;;5.22;0.60;;;;;;;;;;5037515;28;20021;-67
2023/11/15 12:56:39;;;;;;;2.53;0.40;;;;;;;;;;5051796;28;20036;-68
2023/11/15 12:59:05;;;;;;;2.72;0.60;;;;;;;;;;5053149;28;20076;-68
2023/11/15 13:01:31;;;;;;;4.32;0.68;;;;;;;;;;5051951;28;20033;-68
2023/11/15 13:03:58;;;;;;;1.63;0.43;;;;;;;;;;5053134;28;20025;-69
2023/11/15 13:06:26;;;;;;;2.22;0.73;;;;;;;;;;5052163;28;20021;-69
2023/11/15 13:08:53;;;;;;;4.13;0.88;;;;;;;;;;5060413;28;20029;-67
2023/11/15 13:11:21;;;;;;;3.22;1.02;;;;;;;;;;5051562;28;20078;-68
2023/11/15 13:13:47;;;;;;;3.10;0.65;;;;;;;;;;5056304;28;20033;-67
2023/11/15 13:16:14;;;;;;;2.25;0.70;;;;;;;;;;5055977;28;20049;-70
2023/11/15 13:18:40;;;;;;;1.23;0.60;;;;;;;;;;5053068;28;20024;-67
2023/11/15 13:21:08;;;;;;;1.83;0.60;;;;;;;;;;5064497;28;20021;-68
2023/11/15 13:23:52;;;;;;;3.00;0.75;;;;;;;;;;5055211;28;20044;-68
2023/11/15 13:26:19;;;;;;;2.67;0.90;;;;;;;;;;5065387;28;20501;-64
2023/11/15 13:28:47;;;;;;;2.00;0.75;;;;;;;;;;5053682;28;20029;-68
2023/11/15 13:31:14;;;;;;;5.40;0.80;;;;;;;;;;5039306;28;20053;-68
2023/11/15 13:33:44;;;;;;;4.07;0.80;;;;;;;;;;5052058;28;20438;-67
2023/11/15 13:36:11;;;;;;;;;;;;;;;;;;5051811;28;20104;-65
2023/11/15 13:38:37;;;;;;;5.05;0.93;;;;;;;;;;5050584;28;19909;-66
2023/11/15 13:41:07;;;;;;;6.40;1.23;;;;;;;;;;5050785;28;20104;-66
2023/11/15 13:43:33;;;;;;;2.22;0.70;;;;;;;;;;5059641;28;20036;-65
2023/11/15 13:45:59;;;;;;;2.13;0.80;;;;;;;;;;5061364;28;20039;-65
2023/11/15 13:48:25;;;;;;;3.80;0.65;;;;;;;;;;5057195;28;20100;-64
2023/11/15 13:50:51;;;;;;;3.92;1.05;;;;;;;;;;5063150;28;20017;-65
2023/11/15 13:53:19;;;;;;;5.05;0.60;;;;;;;;;;5053573;28;20024;-65
2023/11/15 13:55:46;;;;;;;2.35;0.80;;;;;;;;;;5047532;28;20474;-65
2023/11/15 13:58:12;;;;;;;2.63;0.98;;;;;;;;;;5050596;28;20043;-66
2023/11/15 14:00:38;;;;;;;4.18;1.48;;;;;;;;;;5034717;28;20025;-67
2023/11/15 14:03:08;;;;;;;4.00;0.73;;;;;;;;;;5051477;28;20367;-67
2023/11/15 14:05:34;;;;;;;4.63;0.80;;;;;;;;;;5051044;28;20040;-67
2023/11/15 14:08:01;;;;;;;2.33;1.00;;;;;;;;;;5044499;28;20033;-66
2023/11/15 14:10:31;;;;;;;3.53;0.90;;;;;;;;;;5045403;28;20116;-67
2023/11/15 14:13:04;;;;;;;3.58;0.90;;;;;;;;;;5043686;28;20108;-67
2023/11/15 14:15:30;;;;;;;4.35;0.70;;;;;;;;;;5051787;28;20056;-67
2023/11/15 14:17:56;;;;;;;5.68;1.08;;;;;;;;;;5048992;28;20036;-67
2023/11/15 14:20:24;;;;;;;5.60;1.00;;;;;;;;;;5051297;28;20033;-72
2023/11/15 14:22:51;;;;;;;4.38;0.80;;;;;;;;;;5047776;28;20056;-67
2023/11/15 14:25:21;;;;;;;3.88;1.15;;;;;;;;;;5050590;28;20423;-67
2023/11/15 14:27:53;;;;;;;3.88;0.77;;;;;;;;;;5047565;28;20530;-67
2023/11/15 14:30:21;;;;;;;4.10;0.80;;;;;;;;;;5052217;28;20033;-67
2023/11/15 14:32:48;;;;;;;5.00;1.02;;;;;;;;;;5030231;28;20374;-67
2023/11/15 14:35:14;;;;;;;7.28;1.10;;;;;;;;;;5046364;28;20102;-68
2023/11/15 14:37:41;;;;;;;4.45;0.98;;;;;;;;;;5045946;28;20022;-66
2023/11/15 14:40:08;;;;;;;3.15;0.75;;;;;;;;;;5049591;28;20469;-66
2023/11/15 14:42:34;;;;;;;4.00;1.00;;;;;;;;;;5047771;28;20061;-66
2023/11/15 14:45:01;;;;;;;2.97;0.90;;;;;;;;;;5057312;28;20021;-68